Aviation Digital Data Service (ADDS)

Output produced by METARs form (1221 UTC 21 November 2018)
found at http://www.aviationweather.gov/metar/data/
 
LHSM 211145Z 06003KT 3200 BR OVC004 05/05 Q1016 REDZ TEMPO 4000 BR OVC006
LHSM 211115Z 04003KT 2800 -DZ OVC005 05/05 Q1016 NOSIG
LHSM 211045Z 01002KT 1800 -DZ OVC004 05/05 Q1016 NOSIG
LHSM 211015Z 36002KT 1100 -DZ OVC003 05/05 Q1016 NOSIG
LHSM 210945Z 32002KT 1100 -DZ OVC003 05/05 Q1016 NOSIG
LHSM 210915Z 32003KT 2000 -DZ OVC006 05/04 Q1016 NOSIG
LHSM 210845Z 32004KT 1600 BR OVC006 04/04 Q1016 NOSIG
LHSM 210815Z 32004KT 1600 BR OVC004 04/04 Q1016 NOSIG
LHSM 210745Z 34004KT 1800 BR OVC006 04/04 Q1016 NOSIG
LHSM 210715Z 33006KT 1500 BR OVC005 04/04 Q1015 NOSIG
LHSM 210645Z 32005KT 1800 BR OVC006 04/04 Q1015
TAF LHSM 211115Z 2112/2121 VRB03KT 4000 BR OVC010 
     TEMPO 2112/2121 1500 BR -DZ OVC003 
     PROB30 
     TEMPO 2117/2121 0600 FG DZ OVC002